createdAt,value
2018-05-27T00:00:55.031Z,0.00
2018-05-27T00:01:55.046Z,0.00
2018-05-27T00:02:55.059Z,0.00
2018-05-27T00:03:55.056Z,0.00
2018-05-27T00:04:55.065Z,0.00
2018-05-27T00:05:55.071Z,0.00
2018-05-27T00:06:55.077Z,0.00
2018-05-27T00:07:55.097Z,0.00
2018-05-27T00:08:55.090Z,0.00
2018-05-27T00:09:55.119Z,0.00
2018-05-27T00:10:55.104Z,0.00
2018-05-27T00:11:55.123Z,0.00
2018-05-27T00:12:55.130Z,0.00
2018-05-27T00:13:55.166Z,0.00
2018-05-27T00:14:55.162Z,0.00
2018-05-27T00:15:55.147Z,0.00
2018-05-27T00:16:55.163Z,0.00
2018-05-27T00:17:55.165Z,0.00
2018-05-27T00:18:55.168Z,0.00
2018-05-27T00:19:55.179Z,0.00
2018-05-27T00:20:55.191Z,0.00
2018-05-27T00:21:55.204Z,0.00
2018-05-27T00:22:55.206Z,0.00
2018-05-27T00:23:55.206Z,0.00
2018-05-27T00:24:55.222Z,0.00
2018-05-27T00:25:55.252Z,0.00
2018-05-27T00:26:55.227Z,0.00
2018-05-27T00:27:55.247Z,0.00
2018-05-27T00:28:55.260Z,0.00
2018-05-27T00:29:55.252Z,0.00
2018-05-27T00:30:55.263Z,0.00
2018-05-27T00:31:55.264Z,0.00
2018-05-27T00:32:55.277Z,0.00
2018-05-27T00:33:55.327Z,0.00
2018-05-27T00:34:55.291Z,0.00
2018-05-27T00:35:55.293Z,0.00
2018-05-27T00:36:55.301Z,0.00
2018-05-27T00:37:55.307Z,0.00
2018-05-27T00:38:55.338Z,0.00
2018-05-27T00:39:55.328Z,0.00
2018-05-27T00:40:55.348Z,0.00
2018-05-27T00:41:55.343Z,0.00
2018-05-27T00:42:55.362Z,0.00
2018-05-27T00:43:55.358Z,0.00
2018-05-27T00:44:55.363Z,0.00
2018-05-27T00:45:55.366Z,0.00
2018-05-27T00:46:55.376Z,0.00
2018-05-27T00:47:55.383Z,0.00
2018-05-27T00:48:55.391Z,0.00
2018-05-27T00:49:55.476Z,0.00
2018-05-27T00:50:55.407Z,0.00
2018-05-27T00:51:55.410Z,0.00
2018-05-27T00:52:55.416Z,0.00
2018-05-27T00:53:55.428Z,0.00
2018-05-27T00:54:55.434Z,0.00
2018-05-27T00:55:55.446Z,0.00
2018-05-27T00:56:55.446Z,0.00
2018-05-27T00:57:55.467Z,0.00
2018-05-27T00:58:55.461Z,0.00
2018-05-27T00:59:55.479Z,0.00
2018-05-27T01:00:55.510Z,0.00
2018-05-27T01:01:55.501Z,0.00
2018-05-27T01:02:55.511Z,0.00
2018-05-27T01:03:55.504Z,0.00
2018-05-27T01:04:55.506Z,0.00
2018-05-27T01:05:55.535Z,0.00
2018-05-27T01:06:55.525Z,0.00
2018-05-27T01:07:55.557Z,0.00
2018-05-27T01:08:55.533Z,0.00
2018-05-27T01:09:55.540Z,0.00
2018-05-27T01:10:55.545Z,0.00
2018-05-27T01:11:55.571Z,0.00
2018-05-27T01:12:55.559Z,0.00
2018-05-27T01:13:55.573Z,0.00
2018-05-27T01:14:55.572Z,0.00
2018-05-27T01:15:55.585Z,0.00
2018-05-27T01:16:55.588Z,0.00
2018-05-27T01:17:55.600Z,0.00
2018-05-27T01:18:55.606Z,0.00
2018-05-27T01:19:55.652Z,0.00
2018-05-27T01:20:55.617Z,0.00
2018-05-27T01:21:55.659Z,0.00
2018-05-27T01:22:55.628Z,0.00
2018-05-27T01:23:55.673Z,0.00
2018-05-27T01:24:55.647Z,0.00
2018-05-27T01:25:55.662Z,0.00
2018-05-27T01:26:55.675Z,0.00
2018-05-27T01:27:55.664Z,0.00
2018-05-27T01:28:55.675Z,0.00
2018-05-27T01:29:55.687Z,0.00
2018-05-27T01:30:55.687Z,0.00
2018-05-27T01:31:55.711Z,0.00
2018-05-27T01:32:55.700Z,0.00
2018-05-27T01:33:55.710Z,0.00
2018-05-27T01:34:55.716Z,0.00
2018-05-27T01:35:55.723Z,0.00
2018-05-27T01:36:55.741Z,0.00
2018-05-27T01:37:55.783Z,0.00
2018-05-27T01:38:55.755Z,0.00
2018-05-27T01:39:55.748Z,0.00
2018-05-27T01:40:55.763Z,0.00
2018-05-27T01:41:55.764Z,0.00
2018-05-27T01:42:55.805Z,0.00
2018-05-27T01:43:55.823Z,0.00
2018-05-27T01:44:55.791Z,0.00
2018-05-27T01:45:55.792Z,0.00
2018-05-27T01:46:55.804Z,0.00
2018-05-27T01:47:55.805Z,0.00
2018-05-27T01:48:55.820Z,0.00
2018-05-27T01:49:55.825Z,0.00
2018-05-27T01:50:55.827Z,0.00
2018-05-27T01:51:55.834Z,0.00
2018-05-27T01:52:55.844Z,0.00
2018-05-27T01:53:55.849Z,0.00
2018-05-27T01:54:55.854Z,0.00
2018-05-27T01:55:55.869Z,0.00
2018-05-27T01:56:55.866Z,0.00
2018-05-27T01:57:55.895Z,0.00
2018-05-27T01:58:55.917Z,0.00
2018-05-27T01:59:55.889Z,0.00
2018-05-27T02:00:55.917Z,0.00
2018-05-27T02:01:55.908Z,0.00
2018-05-27T02:02:55.935Z,0.00
2018-05-27T02:03:55.918Z,0.00
2018-05-27T02:04:55.928Z,0.00
2018-05-27T02:05:55.933Z,0.00
2018-05-27T02:06:55.936Z,0.00
2018-05-27T02:07:55.946Z,0.00
2018-05-27T02:08:55.955Z,0.00
2018-05-27T02:09:55.965Z,0.00
2018-05-27T02:10:55.969Z,0.00
2018-05-27T02:11:55.971Z,0.00
2018-05-27T02:12:55.981Z,0.00
2018-05-27T02:13:56.005Z,0.00
2018-05-27T02:14:55.996Z,0.00
2018-05-27T02:15:56.017Z,0.00
2018-05-27T02:16:56.014Z,0.00
2018-05-27T02:17:56.017Z,0.00
2018-05-27T02:18:56.048Z,0.00
2018-05-27T02:19:56.036Z,0.00
2018-05-27T02:20:56.033Z,0.00
2018-05-27T02:21:56.055Z,0.00
2018-05-27T02:22:56.051Z,0.00
2018-05-27T02:23:56.058Z,0.00
2018-05-27T02:24:56.060Z,0.00
2018-05-27T02:25:56.070Z,0.00
2018-05-27T02:26:56.084Z,0.00
2018-05-27T02:27:56.086Z,0.00
2018-05-27T02:28:56.091Z,0.00
2018-05-27T02:29:56.095Z,0.00
2018-05-27T02:30:56.114Z,0.00
2018-05-27T02:31:56.108Z,0.00
2018-05-27T02:32:56.148Z,0.00
2018-05-27T02:33:56.125Z,0.00
2018-05-27T02:34:56.134Z,0.00
2018-05-27T02:35:56.155Z,0.00
2018-05-27T02:36:56.145Z,0.00
2018-05-27T02:37:56.156Z,0.00
2018-05-27T02:38:56.161Z,0.00
2018-05-27T02:39:56.165Z,0.00
2018-05-27T02:40:56.186Z,0.00
2018-05-27T02:41:56.190Z,0.00
2018-05-27T02:42:56.193Z,0.00
2018-05-27T02:43:56.217Z,0.00
2018-05-27T02:44:56.198Z,0.00
2018-05-27T02:45:56.208Z,0.00
2018-05-27T02:46:56.214Z,0.00
2018-05-27T02:47:56.222Z,0.00
2018-05-27T02:48:56.243Z,0.00
2018-05-27T02:49:56.234Z,0.00
2018-05-27T02:50:56.243Z,0.00
2018-05-27T02:51:56.248Z,0.00
2018-05-27T02:52:56.257Z,0.00
2018-05-27T02:53:56.262Z,0.00
2018-05-27T02:54:56.272Z,0.00
2018-05-27T02:55:56.289Z,0.00
2018-05-27T02:56:56.284Z,0.00
2018-05-27T02:57:56.294Z,0.00
2018-05-27T02:58:56.294Z,0.00
2018-05-27T02:59:56.306Z,0.00
2018-05-27T03:00:56.309Z,0.00
2018-05-27T03:01:56.316Z,0.00
2018-05-27T03:02:56.340Z,0.00
2018-05-27T03:03:56.329Z,0.00
2018-05-27T03:04:56.335Z,0.00
2018-05-27T03:05:56.344Z,0.00
2018-05-27T03:06:56.363Z,0.00
2018-05-27T03:07:56.359Z,0.00
2018-05-27T03:08:56.367Z,0.00
2018-05-27T03:09:56.369Z,0.00
2018-05-27T03:10:56.375Z,0.00
2018-05-27T03:11:56.386Z,0.00
2018-05-27T03:12:56.397Z,0.00
2018-05-27T03:13:56.403Z,0.00
2018-05-27T03:14:56.410Z,0.00
2018-05-27T03:15:56.411Z,0.00
2018-05-27T03:16:56.424Z,0.00
2018-05-27T03:17:56.425Z,0.00
2018-05-27T03:18:56.435Z,0.00
2018-05-27T03:19:56.470Z,0.00
2018-05-27T03:20:56.484Z,0.00
2018-05-27T03:21:56.450Z,0.00
2018-05-27T03:22:56.456Z,0.00
2018-05-27T03:23:56.470Z,0.00
2018-05-27T03:24:56.482Z,0.00
2018-05-27T03:25:56.479Z,0.00
2018-05-27T03:26:56.487Z,0.00
2018-05-27T03:27:56.498Z,0.00
2018-05-27T03:28:56.499Z,0.00
2018-05-27T03:29:56.510Z,0.00
2018-05-27T03:30:56.511Z,0.00
2018-05-27T03:31:56.516Z,0.00
2018-05-27T03:32:56.558Z,0.00
2018-05-27T03:33:56.532Z,0.00
2018-05-27T03:34:56.542Z,0.00
2018-05-27T03:35:56.547Z,0.00
2018-05-27T03:36:56.554Z,0.00
2018-05-27T03:37:56.565Z,0.00
2018-05-27T03:38:56.564Z,0.00
2018-05-27T03:39:56.573Z,0.00
2018-05-27T03:40:56.578Z,0.00
2018-05-27T03:41:56.586Z,0.00
2018-05-27T03:42:56.592Z,0.00
2018-05-27T03:43:56.598Z,0.00
2018-05-27T03:44:56.603Z,5.63
2018-05-27T03:45:56.613Z,5.63
2018-05-27T03:46:56.627Z,5.63
2018-05-27T03:47:56.638Z,5.63
2018-05-27T03:48:56.635Z,5.63
2018-05-27T03:49:56.644Z,5.63
2018-05-27T03:50:56.645Z,5.63
2018-05-27T03:51:56.658Z,5.63
2018-05-27T03:52:56.666Z,5.63
2018-05-27T03:53:56.674Z,5.63
2018-05-27T03:54:56.673Z,5.63
2018-05-27T03:55:56.682Z,5.63
2018-05-27T03:56:56.686Z,5.63
2018-05-27T03:57:56.699Z,11.25
2018-05-27T03:58:56.701Z,11.25
2018-05-27T03:59:56.713Z,11.25
2018-05-27T04:00:56.729Z,11.25
2018-05-27T04:01:56.719Z,11.25
2018-05-27T04:02:56.727Z,11.25
2018-05-27T04:03:56.764Z,11.25
2018-05-27T04:04:56.746Z,11.25
2018-05-27T04:05:56.759Z,11.25
2018-05-27T04:06:56.756Z,11.25
2018-05-27T04:07:56.764Z,11.25
2018-05-27T04:08:56.769Z,11.25
2018-05-27T04:09:56.778Z,11.25
2018-05-27T04:10:56.790Z,11.25
2018-05-27T04:11:56.809Z,11.25
2018-05-27T04:12:56.797Z,11.25
2018-05-27T04:13:56.842Z,11.25
2018-05-27T04:14:56.830Z,11.25
2018-05-27T04:15:56.821Z,11.25
2018-05-27T04:16:56.824Z,11.25
2018-05-27T04:17:56.831Z,11.25
2018-05-27T04:18:56.837Z,11.25
2018-05-27T04:19:56.840Z,16.88
2018-05-27T04:20:56.849Z,16.88
2018-05-27T04:21:56.854Z,16.88
2018-05-27T04:22:56.891Z,16.88
2018-05-27T04:23:56.871Z,16.88
2018-05-27T04:24:56.875Z,16.88
2018-05-27T04:25:56.947Z,16.88
2018-05-27T04:26:56.888Z,16.88
2018-05-27T04:27:56.926Z,16.88
2018-05-27T04:28:56.941Z,16.88
2018-05-27T04:29:56.910Z,16.88
2018-05-27T04:30:56.920Z,16.88
2018-05-27T04:31:56.925Z,16.88
2018-05-27T04:32:56.965Z,16.88
2018-05-27T04:33:56.935Z,22.50
2018-05-27T04:34:56.942Z,22.50
2018-05-27T04:35:56.947Z,22.50
2018-05-27T04:36:56.962Z,22.50
2018-05-27T04:37:56.967Z,22.50
2018-05-27T04:38:56.979Z,22.50
2018-05-27T04:39:56.977Z,22.50
2018-05-27T04:40:57.053Z,22.50
2018-05-27T04:41:56.989Z,22.50
2018-05-27T04:42:56.999Z,22.50
2018-05-27T04:43:56.999Z,22.50
2018-05-27T04:44:57.008Z,28.13
2018-05-27T04:45:57.014Z,28.13
2018-05-27T04:46:57.036Z,28.13
2018-05-27T04:47:57.028Z,28.13
2018-05-27T04:48:57.043Z,28.13
2018-05-27T04:49:57.060Z,28.13
2018-05-27T04:50:57.057Z,28.13
2018-05-27T04:51:57.060Z,28.13
2018-05-27T04:52:57.078Z,28.13
2018-05-27T04:53:57.087Z,28.13
2018-05-27T04:54:57.076Z,28.13
2018-05-27T04:55:57.082Z,33.75
2018-05-27T04:56:57.090Z,33.75
2018-05-27T04:57:57.098Z,33.75
2018-05-27T04:58:57.103Z,33.75
2018-05-27T04:59:57.113Z,33.75
2018-05-27T05:00:57.120Z,33.75
2018-05-27T05:01:57.124Z,39.38
2018-05-27T05:02:57.137Z,39.38
2018-05-27T05:03:57.145Z,39.38
2018-05-27T05:04:57.157Z,39.38
2018-05-27T05:05:57.153Z,39.38
2018-05-27T05:06:57.187Z,39.38
2018-05-27T05:07:57.168Z,39.38
2018-05-27T05:08:57.173Z,39.38
2018-05-27T05:09:57.209Z,39.38
2018-05-27T05:10:57.186Z,39.38
2018-05-27T05:11:57.200Z,39.38
2018-05-27T05:12:57.231Z,39.38
2018-05-27T05:13:57.220Z,39.38
2018-05-27T05:14:57.231Z,39.38
2018-05-27T05:15:57.229Z,39.38
2018-05-27T05:16:57.230Z,39.38
2018-05-27T05:17:57.236Z,39.38
2018-05-27T05:18:57.239Z,39.38
2018-05-27T05:19:57.265Z,39.38
2018-05-27T05:20:57.253Z,45.00
2018-05-27T05:21:57.306Z,45.00
2018-05-27T05:22:57.274Z,45.00
2018-05-27T05:23:57.271Z,45.00
2018-05-27T05:24:57.292Z,45.00
2018-05-27T05:25:57.290Z,45.00
2018-05-27T05:26:57.293Z,45.00
2018-05-27T05:27:57.298Z,45.00
2018-05-27T05:28:57.309Z,45.00
2018-05-27T05:29:57.320Z,45.00
2018-05-27T05:30:57.322Z,45.00
2018-05-27T05:31:57.342Z,45.00
2018-05-27T05:32:57.344Z,45.00
2018-05-27T05:33:57.349Z,45.00
2018-05-27T05:34:57.357Z,45.00
2018-05-27T05:35:57.383Z,45.00
2018-05-27T05:36:57.364Z,45.00
2018-05-27T05:37:57.377Z,45.00
2018-05-27T05:38:57.376Z,45.00
2018-05-27T05:39:57.386Z,45.00
2018-05-27T05:40:57.392Z,45.00
2018-05-27T05:41:57.402Z,45.00
2018-05-27T05:42:57.410Z,45.00
2018-05-27T05:43:57.418Z,45.00
2018-05-27T05:44:57.445Z,45.00
2018-05-27T05:45:57.474Z,50.63
2018-05-27T05:46:57.444Z,50.63
2018-05-27T05:47:57.451Z,45.00
2018-05-27T05:48:57.457Z,45.00
2018-05-27T05:49:57.470Z,45.00
2018-05-27T05:50:57.478Z,45.00
2018-05-27T05:51:57.472Z,45.00
2018-05-27T05:52:57.479Z,45.00
2018-05-27T05:53:57.484Z,45.00
2018-05-27T05:54:57.492Z,45.00
2018-05-27T05:55:57.502Z,50.63
2018-05-27T05:56:57.519Z,50.63
2018-05-27T05:57:57.535Z,50.63
2018-05-27T05:58:57.531Z,50.63
2018-05-27T05:59:57.534Z,50.63
2018-05-27T06:00:57.546Z,56.25
2018-05-27T06:01:57.548Z,56.25
2018-05-27T06:02:57.564Z,56.25
2018-05-27T06:03:57.565Z,56.25
2018-05-27T06:04:57.574Z,56.25
2018-05-27T06:05:57.582Z,56.25
2018-05-27T06:06:57.588Z,56.25
2018-05-27T06:07:57.598Z,56.25
2018-05-27T06:08:57.621Z,56.25
2018-05-27T06:09:57.608Z,56.25
2018-05-27T06:10:57.623Z,61.88
2018-05-27T06:11:57.625Z,56.25
2018-05-27T06:12:57.630Z,56.25
2018-05-27T06:13:57.635Z,61.88
2018-05-27T06:14:57.656Z,61.88
2018-05-27T06:15:57.651Z,61.88
2018-05-27T06:16:57.672Z,61.88
2018-05-27T06:17:57.674Z,61.88
2018-05-27T06:18:57.681Z,61.88
2018-05-27T06:19:57.689Z,61.88
2018-05-27T06:20:57.691Z,67.50
2018-05-27T06:21:57.698Z,67.50
2018-05-27T06:22:57.705Z,67.50
2018-05-27T06:23:57.712Z,67.50
2018-05-27T06:24:57.726Z,67.50
2018-05-27T06:25:57.727Z,67.50
2018-05-27T06:26:57.749Z,67.50
2018-05-27T06:27:57.772Z,67.50
2018-05-27T06:28:57.761Z,67.50
2018-05-27T06:29:57.758Z,67.50
2018-05-27T06:30:57.768Z,67.50
2018-05-27T06:31:57.819Z,73.13
2018-05-27T06:32:57.783Z,73.13
2018-05-27T06:33:57.790Z,73.13
2018-05-27T06:34:57.800Z,67.50
2018-05-27T06:35:57.805Z,67.50
2018-05-27T06:36:57.815Z,73.13
2018-05-27T06:37:57.825Z,73.13
2018-05-27T06:38:57.844Z,73.13
2018-05-27T06:39:57.837Z,73.13
2018-05-27T06:40:57.850Z,78.75
2018-05-27T06:41:57.863Z,78.75
2018-05-27T06:42:57.861Z,78.75
2018-05-27T06:43:57.868Z,78.75
2018-05-27T06:44:57.882Z,78.75
2018-05-27T06:45:57.884Z,84.38
2018-05-27T06:46:57.892Z,84.38
2018-05-27T06:47:57.953Z,84.38
2018-05-27T06:48:57.909Z,84.38
2018-05-27T06:49:57.959Z,84.38
2018-05-27T06:50:57.924Z,84.38
2018-05-27T06:51:57.941Z,84.38
2018-05-27T06:52:57.951Z,78.75
2018-05-27T06:53:57.949Z,78.75
2018-05-27T06:54:57.998Z,78.75
2018-05-27T06:55:57.997Z,78.75
2018-05-27T06:56:57.978Z,84.38
2018-05-27T06:57:57.992Z,84.38
2018-05-27T06:58:58.033Z,84.38
2018-05-27T06:59:58.032Z,84.38
2018-05-27T07:00:58.013Z,84.38
2018-05-27T07:01:58.017Z,84.38
2018-05-27T07:02:58.080Z,84.38
2018-05-27T07:03:58.045Z,84.38
2018-05-27T07:04:58.092Z,84.38
2018-05-27T07:05:58.071Z,84.38
2018-05-27T07:06:58.060Z,84.38
2018-05-27T07:07:58.084Z,84.38
2018-05-27T07:08:58.086Z,84.38
2018-05-27T07:09:58.125Z,84.38
2018-05-27T07:10:58.098Z,84.38
2018-05-27T07:11:58.114Z,84.38
2018-05-27T07:12:58.117Z,84.38
2018-05-27T07:13:58.140Z,90.00
2018-05-27T07:14:58.134Z,84.38
2018-05-27T07:15:58.136Z,90.00
2018-05-27T07:16:58.167Z,90.00
2018-05-27T07:17:58.168Z,90.00
2018-05-27T07:18:58.170Z,84.38
2018-05-27T07:19:58.179Z,90.00
2018-05-27T07:20:58.185Z,90.00
2018-05-27T07:21:58.197Z,84.38
2018-05-27T07:22:58.211Z,84.38
2018-05-27T07:23:58.217Z,84.38
2018-05-27T07:24:58.224Z,84.38
2018-05-27T07:25:58.231Z,84.38
2018-05-27T07:26:58.245Z,84.38
2018-05-27T07:27:58.266Z,84.38
2018-05-27T07:28:58.256Z,84.38
2018-05-27T07:29:58.266Z,90.00
2018-05-27T07:30:58.310Z,90.00
2018-05-27T07:31:58.297Z,90.00
2018-05-27T07:32:58.293Z,90.00
2018-05-27T07:33:58.304Z,90.00
2018-05-27T07:34:58.328Z,95.63
2018-05-27T07:35:58.365Z,95.63
2018-05-27T07:36:58.331Z,95.63
2018-05-27T07:37:58.342Z,95.63
2018-05-27T07:38:58.362Z,95.63
2018-05-27T07:39:58.370Z,95.63
2018-05-27T07:40:58.382Z,95.63
2018-05-27T07:41:58.380Z,95.63
2018-05-27T07:42:58.429Z,95.63
2018-05-27T07:43:58.400Z,95.63
2018-05-27T07:44:58.405Z,95.63
2018-05-27T07:45:58.442Z,95.63
2018-05-27T07:46:58.429Z,95.63
2018-05-27T07:47:58.468Z,95.63
2018-05-27T07:48:58.455Z,95.63
2018-05-27T07:49:58.459Z,95.63
2018-05-27T07:50:58.467Z,95.63
2018-05-27T07:51:58.481Z,95.63
2018-05-27T07:52:58.487Z,95.63
2018-05-27T07:53:58.491Z,95.63
2018-05-27T07:54:58.503Z,95.63
2018-05-27T07:55:58.537Z,95.63
2018-05-27T07:56:58.527Z,95.63
2018-05-27T07:57:58.564Z,95.63
2018-05-27T07:58:58.552Z,95.63
2018-05-27T07:59:58.551Z,95.63
2018-05-27T08:00:58.562Z,95.63
2018-05-27T08:01:58.573Z,95.63
2018-05-27T08:02:58.581Z,95.63
2018-05-27T08:03:58.600Z,95.63
2018-05-27T08:04:58.619Z,95.63
2018-05-27T08:05:58.613Z,95.63
2018-05-27T08:06:58.624Z,95.63
2018-05-27T08:07:58.643Z,101.25
2018-05-27T08:08:58.647Z,101.25
2018-05-27T08:09:58.660Z,101.25
2018-05-27T08:10:58.664Z,101.25
2018-05-27T08:11:58.680Z,101.25
2018-05-27T08:12:58.720Z,101.25
2018-05-27T08:13:58.694Z,101.25
2018-05-27T08:14:58.704Z,95.63
2018-05-27T08:15:58.732Z,101.25
2018-05-27T08:16:58.770Z,95.63
2018-05-27T08:17:58.745Z,101.25
2018-05-27T08:18:58.755Z,101.25
2018-05-27T08:19:58.822Z,101.25
2018-05-27T08:20:58.767Z,106.88
2018-05-27T08:21:58.784Z,106.88
2018-05-27T08:22:58.800Z,95.63
2018-05-27T08:23:58.800Z,95.63
2018-05-27T08:24:58.861Z,90.00
2018-05-27T08:25:58.820Z,90.00
2018-05-27T08:26:58.839Z,84.38
2018-05-27T08:27:58.841Z,95.63
2018-05-27T08:28:58.879Z,95.63
2018-05-27T08:29:58.868Z,90.00
2018-05-27T08:30:58.903Z,84.38
2018-05-27T08:31:58.885Z,101.25
2018-05-27T08:32:58.898Z,95.63
2018-05-27T08:33:58.935Z,90.00
2018-05-27T08:34:58.965Z,90.00
2018-05-27T08:35:58.961Z,95.63
2018-05-27T08:36:58.944Z,95.63
2018-05-27T08:37:58.954Z,95.63
2018-05-27T08:38:58.962Z,106.88
2018-05-27T08:39:58.996Z,106.88
2018-05-27T08:40:58.983Z,106.88
2018-05-27T08:41:58.998Z,106.88
2018-05-27T08:42:59.015Z,106.88
2018-05-27T08:43:59.022Z,95.63
2018-05-27T08:44:59.032Z,95.63
2018-05-27T08:45:59.040Z,95.63
2018-05-27T08:46:59.046Z,95.63
2018-05-27T08:47:59.056Z,95.63
2018-05-27T08:48:59.144Z,90.00
2018-05-27T08:49:59.113Z,90.00
2018-05-27T08:50:59.110Z,95.63
2018-05-27T08:51:59.117Z,95.63
2018-05-27T08:52:59.119Z,84.38
2018-05-27T08:53:59.133Z,78.75
2018-05-27T08:54:59.162Z,78.75
2018-05-27T08:55:59.147Z,78.75
2018-05-27T08:56:59.157Z,78.75
2018-05-27T08:57:59.202Z,73.13
2018-05-27T08:58:59.182Z,73.13
2018-05-27T08:59:59.187Z,73.13
2018-05-27T09:00:59.202Z,78.75
2018-05-27T09:01:59.217Z,84.38
2018-05-27T09:02:59.229Z,90.00
2018-05-27T09:03:59.234Z,101.25
2018-05-27T09:04:59.244Z,90.00
2018-05-27T09:05:59.261Z,95.63
2018-05-27T09:06:59.268Z,90.00
2018-05-27T09:07:59.284Z,90.00
2018-05-27T09:08:59.315Z,95.63
2018-05-27T09:09:59.306Z,95.63
2018-05-27T09:10:59.324Z,101.25
2018-05-27T09:11:59.356Z,106.88
2018-05-27T09:12:59.349Z,101.25
2018-05-27T09:13:59.372Z,90.00
2018-05-27T09:14:59.366Z,95.63
2018-05-27T09:15:59.397Z,101.25
2018-05-27T09:16:59.379Z,106.88
2018-05-27T09:17:59.393Z,112.50
2018-05-27T09:18:59.399Z,106.88
2018-05-27T09:19:59.417Z,112.50
2018-05-27T09:20:59.429Z,112.50
2018-05-27T09:21:59.453Z,112.50
2018-05-27T09:22:59.452Z,118.13
2018-05-27T09:23:59.467Z,123.75
2018-05-27T09:24:59.480Z,123.75
2018-05-27T09:25:59.513Z,140.63
2018-05-27T09:26:59.515Z,123.75
2018-05-27T09:27:59.502Z,151.88
2018-05-27T09:28:59.523Z,168.75
2018-05-27T09:29:59.538Z,168.75
2018-05-27T09:30:59.540Z,140.63
2018-05-27T09:31:59.555Z,151.88
2018-05-27T09:32:59.564Z,151.88
2018-05-27T09:33:59.588Z,163.13
2018-05-27T09:34:59.596Z,163.13
2018-05-27T09:35:59.598Z,151.88
2018-05-27T09:36:59.614Z,118.13
2018-05-27T09:37:59.624Z,123.75
2018-05-27T09:38:59.640Z,101.25
2018-05-27T09:39:59.655Z,101.25
2018-05-27T09:40:59.660Z,101.25
2018-05-27T09:41:59.670Z,101.25
2018-05-27T09:42:59.683Z,101.25
2018-05-27T09:43:59.705Z,140.63
2018-05-27T09:44:59.716Z,135.00
2018-05-27T09:45:59.721Z,146.25
2018-05-27T09:46:59.776Z,146.25
2018-05-27T09:47:59.743Z,140.63
2018-05-27T09:48:59.800Z,140.63
2018-05-27T09:49:59.781Z,140.63
2018-05-27T09:50:59.874Z,135.00
2018-05-27T09:51:59.789Z,135.00
2018-05-27T09:52:59.834Z,135.00
2018-05-27T09:53:59.833Z,135.00
2018-05-27T09:54:59.837Z,135.00
2018-05-27T09:55:59.844Z,129.38
2018-05-27T09:56:59.875Z,135.00
2018-05-27T09:57:59.955Z,135.00
2018-05-27T09:58:59.872Z,135.00
2018-05-27T09:59:59.934Z,135.00
2018-05-27T10:00:59.899Z,140.63
2018-05-27T10:01:59.923Z,135.00
2018-05-27T10:02:59.924Z,135.00
2018-05-27T10:03:59.945Z,135.00
2018-05-27T10:04:59.956Z,135.00
2018-05-27T10:05:59.965Z,135.00
2018-05-27T10:06:59.974Z,135.00
2018-05-27T10:07:59.992Z,140.63
2018-05-27T10:08:59.999Z,135.00
2018-05-27T10:10:00.011Z,135.00
2018-05-27T10:11:00.028Z,135.00
2018-05-27T10:12:00.053Z,135.00
2018-05-27T10:13:00.054Z,135.00
2018-05-27T10:14:00.081Z,135.00
2018-05-27T10:15:00.082Z,140.63
2018-05-27T10:16:00.090Z,140.63
2018-05-27T10:17:00.110Z,135.00
2018-05-27T10:18:00.119Z,140.63
2018-05-27T10:19:00.188Z,140.63
2018-05-27T10:20:00.144Z,140.63
2018-05-27T10:21:00.184Z,140.63
2018-05-27T10:22:00.168Z,140.63
2018-05-27T10:23:00.210Z,140.63
2018-05-27T10:24:00.222Z,140.63
2018-05-27T10:25:00.206Z,146.25
2018-05-27T10:26:00.284Z,146.25
2018-05-27T10:27:00.235Z,146.25
2018-05-27T10:28:00.248Z,146.25
2018-05-27T10:29:00.264Z,157.50
2018-05-27T10:30:00.279Z,168.75
2018-05-27T10:31:00.285Z,168.75
2018-05-27T10:32:00.314Z,163.13
2018-05-27T10:33:00.313Z,168.75
2018-05-27T10:34:00.339Z,168.75
2018-05-27T10:35:00.345Z,174.38
2018-05-27T10:36:00.348Z,168.75
2018-05-27T10:37:00.376Z,174.38
2018-05-27T10:38:00.398Z,174.38
2018-05-27T10:39:00.390Z,168.75
2018-05-27T10:40:00.413Z,180.00
2018-05-27T10:41:00.415Z,168.75
2018-05-27T10:42:00.449Z,163.13
2018-05-27T10:43:00.466Z,163.13
2018-05-27T10:44:00.480Z,95.63
2018-05-27T10:45:00.471Z,84.38
2018-05-27T10:46:00.492Z,90.00
2018-05-27T10:47:00.500Z,95.63
2018-05-27T10:48:00.517Z,84.38
2018-05-27T10:49:00.557Z,84.38
2018-05-27T10:50:00.545Z,84.38
2018-05-27T10:51:00.555Z,90.00
2018-05-27T10:52:00.575Z,90.00
2018-05-27T10:53:00.582Z,90.00
2018-05-27T10:54:00.600Z,90.00
2018-05-27T10:55:00.606Z,90.00
2018-05-27T10:56:00.619Z,90.00
2018-05-27T10:57:00.633Z,84.38
2018-05-27T10:58:00.648Z,84.38
2018-05-27T10:59:00.679Z,84.38
2018-05-27T11:00:00.688Z,84.38
2018-05-27T11:01:00.705Z,84.38
2018-05-27T11:02:00.706Z,84.38
2018-05-27T11:03:00.720Z,84.38
2018-05-27T11:04:00.734Z,84.38
2018-05-27T11:05:00.746Z,84.38
2018-05-27T11:06:00.819Z,90.00
2018-05-27T11:07:00.763Z,84.38
2018-05-27T11:08:00.818Z,84.38
2018-05-27T11:09:00.812Z,78.75
2018-05-27T11:10:00.822Z,78.75
2018-05-27T11:11:00.816Z,78.75
2018-05-27T11:12:00.829Z,73.13
2018-05-27T11:13:00.844Z,73.13
2018-05-27T11:14:00.864Z,73.13
2018-05-27T11:15:00.875Z,73.13
2018-05-27T11:16:00.903Z,73.13
2018-05-27T11:17:00.905Z,73.13
2018-05-27T11:18:00.911Z,73.13
2018-05-27T11:19:00.924Z,73.13
2018-05-27T11:20:00.937Z,73.13
2018-05-27T11:21:00.951Z,78.75
2018-05-27T11:22:00.969Z,78.75
2018-05-27T11:23:00.975Z,78.75
2018-05-27T11:24:00.989Z,73.13
2018-05-27T11:25:01.016Z,73.13
2018-05-27T11:26:01.016Z,73.13
2018-05-27T11:27:01.081Z,73.13
2018-05-27T11:28:01.051Z,67.50
2018-05-27T11:29:01.052Z,67.50
2018-05-27T11:30:01.067Z,61.88
2018-05-27T11:31:01.083Z,61.88
2018-05-27T11:32:01.129Z,61.88
2018-05-27T11:33:01.109Z,61.88
2018-05-27T11:34:01.115Z,56.25
2018-05-27T11:35:01.132Z,56.25
2018-05-27T11:36:01.143Z,56.25
2018-05-27T11:37:01.155Z,50.63
2018-05-27T11:38:01.199Z,50.63
2018-05-27T11:39:01.187Z,50.63
2018-05-27T11:40:01.198Z,50.63
2018-05-27T11:41:01.208Z,50.63
2018-05-27T11:42:01.228Z,45.00
2018-05-27T11:43:01.274Z,45.00
2018-05-27T11:44:01.252Z,45.00
2018-05-27T11:45:01.259Z,45.00
2018-05-27T11:46:01.274Z,45.00
2018-05-27T11:47:01.281Z,45.00
2018-05-27T11:48:01.299Z,45.00
2018-05-27T11:49:01.324Z,45.00
2018-05-27T11:50:01.317Z,45.00
2018-05-27T11:51:01.347Z,45.00
2018-05-27T11:52:01.352Z,45.00
2018-05-27T11:53:01.368Z,45.00
2018-05-27T11:54:01.371Z,45.00
2018-05-27T11:55:01.379Z,39.38
2018-05-27T11:56:01.399Z,39.38
2018-05-27T11:57:01.415Z,39.38
2018-05-27T11:58:01.421Z,39.38
2018-05-27T11:59:01.432Z,39.38
2018-05-27T12:00:01.446Z,39.38
2018-05-27T12:01:01.454Z,45.00
2018-05-27T12:02:01.480Z,45.00
2018-05-27T12:03:01.487Z,45.00
2018-05-27T12:04:01.506Z,45.00
2018-05-27T12:05:01.507Z,45.00
2018-05-27T12:06:01.526Z,45.00
2018-05-27T12:07:01.536Z,45.00
2018-05-27T12:08:01.572Z,45.00
2018-05-27T12:09:01.668Z,50.63
2018-05-27T12:10:01.569Z,50.63
2018-05-27T12:11:01.580Z,50.63
2018-05-27T12:12:01.587Z,56.25
2018-05-27T12:13:01.603Z,56.25
2018-05-27T12:14:01.619Z,56.25
2018-05-27T12:15:01.628Z,61.88
2018-05-27T12:16:01.653Z,61.88
2018-05-27T12:17:01.654Z,67.50
2018-05-27T12:18:01.668Z,67.50
2018-05-27T12:19:01.674Z,73.13
2018-05-27T12:20:01.692Z,73.13
2018-05-27T12:21:01.701Z,73.13
2018-05-27T12:22:01.742Z,78.75
2018-05-27T12:23:01.721Z,78.75
2018-05-27T12:24:01.751Z,84.38
2018-05-27T12:25:01.750Z,84.38
2018-05-27T12:26:01.780Z,84.38
2018-05-27T12:27:01.771Z,84.38
2018-05-27T12:28:01.782Z,90.00
2018-05-27T12:29:01.793Z,90.00
2018-05-27T12:30:01.807Z,90.00
2018-05-27T12:31:01.832Z,90.00
2018-05-27T12:32:01.831Z,90.00
2018-05-27T12:33:01.852Z,90.00
2018-05-27T12:34:01.855Z,84.38
2018-05-27T12:35:01.877Z,84.38
2018-05-27T12:36:01.900Z,84.38
2018-05-27T12:37:01.894Z,84.38
2018-05-27T12:38:01.906Z,78.75
2018-05-27T12:39:01.922Z,78.75
2018-05-27T12:40:01.930Z,78.75
2018-05-27T12:41:01.942Z,78.75
2018-05-27T12:42:01.967Z,73.13
2018-05-27T12:43:01.967Z,73.13
2018-05-27T12:44:01.988Z,73.13
2018-05-27T12:45:01.997Z,67.50
2018-05-27T12:46:02.008Z,67.50
2018-05-27T12:47:02.019Z,67.50
2018-05-27T12:48:02.036Z,61.88
2018-05-27T12:49:02.044Z,61.88
2018-05-27T12:50:02.058Z,61.88
2018-05-27T12:51:02.088Z,61.88
2018-05-27T12:52:02.103Z,61.88
2018-05-27T12:53:02.086Z,61.88
2018-05-27T12:54:02.100Z,61.88
2018-05-27T12:55:02.127Z,61.88
2018-05-27T12:56:02.123Z,61.88
2018-05-27T12:57:02.182Z,56.25